Time;durP1;ratioP1;P1;durP2;ratioP2;P2;SDS_P1;SDS_P2;PMS_P1;PMS_P2;Temp;Humidity;BMP_temperature;BMP_pressure;BME280_temperature;BME280_humidity;BME280_pressure;Samples;Min_cycle;Max_cycle;Signal;HPM_P1;HPM_P2
2021/09/08 00:00:23;;;;;;;20.00;11.95;;;;;;;16.62;100.00;99894.83;4127348;83;28501;-83
2021/09/08 00:06:27;;;;;;;21.05;12.95;;;;;;;16.67;100.00;99901.66;4171281;83;28501;-83
2021/09/08 00:12:28;;;;;;;21.82;12.43;;;;;;;16.41;100.00;99908.10;4173791;83;28474;-83
2021/09/08 00:18:30;;;;;;;19.60;11.73;;;;;;;16.54;100.00;99908.81;4204670;83;28505;-83
2021/09/08 00:24:31;;;;;;;22.67;12.58;;;;;;;16.57;100.00;99906.95;4154287;83;28577;-82
2021/09/08 00:30:33;;;;;;;22.17;12.13;;;;;;;16.35;100.00;99898.23;4323196;81;28529;-81
2021/09/08 00:36:36;;;;;;;19.00;11.65;;;;;;;16.34;100.00;99907.44;4276619;81;28467;-82
2021/09/08 00:42:37;;;;;;;22.82;11.75;;;;;;;16.62;100.00;99898.06;4154040;84;28491;-81
2021/09/08 00:48:38;;;;;;;22.58;12.05;;;;;;;16.34;100.00;99906.09;4266924;81;28539;-80
2021/09/08 00:54:47;;;;;;;19.80;11.10;;;;;;;16.22;100.00;99912.14;4294715;81;28548;-81
2021/09/08 01:00:50;;;;;;;19.75;12.10;;;;;;;16.32;100.00;99901.45;4287809;81;28513;-81
2021/09/08 01:06:52;;;;;;;20.68;12.05;;;;;;;16.32;100.00;99908.23;4280887;81;28457;-79
2021/09/08 01:12:54;;;;;;;22.85;11.95;;;;;;;16.33;100.00;99897.66;4294811;81;28459;-79
2021/09/08 01:18:55;;;;;;;22.58;13.13;;;;;;;16.07;100.00;99903.22;4332915;81;28475;-81
2021/09/08 01:24:58;;;;;;;19.00;11.48;;;;;;;16.27;100.00;99907.62;4266406;81;28494;-81
2021/09/08 01:31:00;;;;;;;23.67;12.35;;;;;;;16.36;100.00;99901.23;4271083;82;28457;-81
2021/09/08 01:37:02;;;;;;;21.27;12.60;;;;;;;16.28;100.00;99899.76;4279429;81;28471;-80
2021/09/08 01:43:03;;;;;;;21.37;11.55;;;;;;;16.03;100.00;99902.34;4260736;81;28494;-82
2021/09/08 01:49:04;;;;;;;22.00;13.40;;;;;;;15.98;100.00;99904.14;4166681;84;28524;-83
2021/09/08 01:55:08;;;;;;;20.72;11.83;;;;;;;16.05;100.00;99904.01;4271998;81;28430;-84
2021/09/08 02:01:10;;;;;;;23.35;12.95;;;;;;;15.70;100.00;99899.05;4272883;81;28540;-83
2021/09/08 02:07:11;;;;;;;19.62;11.20;;;;;;;15.73;100.00;99899.91;4249245;82;28516;-83
2021/09/08 02:13:13;;;;;;;21.48;11.05;;;;;;;15.68;100.00;99907.41;4287412;81;28459;-81
2021/09/08 02:19:14;;;;;;;17.40;10.65;;;;;;;15.56;100.00;99903.40;4280880;81;28459;-83
2021/09/08 02:25:15;;;;;;;19.95;11.57;;;;;;;15.52;100.00;99908.22;4281206;81;28447;-83
2021/09/08 02:31:17;;;;;;;20.60;11.70;;;;;;;15.55;100.00;99906.38;4317922;81;28448;-82
2021/09/08 02:37:18;;;;;;;21.15;11.88;;;;;;;15.34;100.00;99899.21;4283603;81;28487;-82
2021/09/08 02:43:19;;;;;;;19.52;11.57;;;;;;;15.40;100.00;99896.06;4329178;81;28490;-82
2021/09/08 02:49:21;;;;;;;17.75;10.63;;;;;;;15.60;100.00;99894.25;4318226;81;28487;-82
2021/09/08 02:55:22;;;;;;;18.45;10.95;;;;;;;15.55;100.00;99890.91;4287005;83;28459;-82
2021/09/08 03:01:23;;;;;;;20.88;11.45;;;;;;;15.41;100.00;99898.55;4184122;84;28505;-81
2021/09/08 03:07:25;;;;;;;19.73;11.15;;;;;;;15.49;100.00;99897.33;4110989;86;28474;-81
2021/09/08 03:13:26;;;;;;;19.00;10.68;;;;;;;15.32;100.00;99894.02;4147690;85;28493;-80
2021/09/08 03:19:27;;;;;;;19.57;10.68;;;;;;;15.17;100.00;99902.67;4286185;83;28490;-81
2021/09/08 03:25:30;;;;;;;18.82;10.72;;;;;;;15.17;100.00;99897.25;4180328;85;28565;-82
2021/09/08 03:31:31;;;;;;;19.55;11.18;;;;;;;15.17;100.00;99903.22;4154196;86;28543;-81
2021/09/08 03:37:32;;;;;;;16.25;10.35;;;;;;;15.53;100.00;99907.16;4153067;86;28535;-81
2021/09/08 03:43:34;;;;;;;16.15;10.25;;;;;;;15.37;100.00;99901.42;4184202;85;28493;-81
2021/09/08 03:49:35;;;;;;;20.77;11.03;;;;;;;15.13;100.00;99898.81;4194072;84;28467;-80
2021/09/08 03:55:36;;;;;;;17.57;10.50;;;;;;;15.01;100.00;99905.60;4215824;84;28489;-80
2021/09/08 04:01:38;;;;;;;21.55;10.15;;;;;;;14.93;100.00;99895.14;4205283;84;28475;-80
2021/09/08 04:07:41;;;;;;;17.92;10.05;;;;;;;14.88;100.00;99898.56;4229449;83;28491;-80
2021/09/08 04:13:42;;;;;;;17.32;9.90;;;;;;;15.13;100.00;99904.75;4240925;83;28508;-80
2021/09/08 04:19:44;;;;;;;19.32;10.08;;;;;;;15.14;100.00;99909.94;4246267;83;28498;-80
2021/09/08 04:25:47;;;;;;;18.23;10.13;;;;;;;14.99;100.00;99909.61;4241367;83;28495;-81
2021/09/08 04:31:48;;;;;;;17.95;9.88;;;;;;;15.24;100.00;99912.56;4216295;83;28529;-80
2021/09/08 04:37:49;;;;;;;18.90;9.85;;;;;;;15.13;100.00;99912.35;4247961;84;28507;-81
2021/09/08 04:43:50;;;;;;;16.97;9.38;;;;;;;15.32;100.00;99912.98;4184000;83;28462;-81
2021/09/08 04:49:52;;;;;;;17.48;9.88;;;;;;;15.32;100.00;99915.70;4166809;84;28487;-80
2021/09/08 04:55:53;;;;;;;18.73;10.48;;;;;;;15.65;100.00;99908.43;4111126;84;28515;-80
2021/09/08 05:01:54;;;;;;;18.23;10.15;;;;;;;15.88;100.00;99911.55;4049058;88;28497;-80
2021/09/08 05:07:56;;;;;;;18.15;10.40;;;;;;;15.76;100.00;99908.90;4080585;87;28455;-80
2021/09/08 05:13:58;;;;;;;16.05;9.50;;;;;;;15.78;100.00;99912.22;4119295;86;28537;-80
2021/09/08 05:20:01;;;;;;;21.90;9.70;;;;;;;16.09;100.00;99917.35;4116271;84;28589;-81
2021/09/08 05:26:02;;;;;;;20.72;10.82;;;;;;;16.15;100.00;99918.55;4129944;84;28525;-78
2021/09/08 05:32:04;;;;;;;22.75;11.45;;;;;;;16.59;100.00;99921.93;4130662;84;28523;-80
2021/09/08 05:38:07;;;;;;;24.85;12.00;;;;;;;16.65;100.00;99928.25;4130150;86;28473;-82
2021/09/08 05:44:08;;;;;;;21.93;12.53;;;;;;;16.83;100.00;99930.41;4122759;84;28479;-81
2021/09/08 05:50:10;;;;;;;26.37;12.78;;;;;;;17.26;100.00;99933.40;4261980;81;28489;-81
2021/09/08 05:56:11;;;;;;;24.40;13.03;;;;;;;17.47;100.00;99937.19;4280424;82;28569;-81
2021/09/08 06:02:12;;;;;;;25.77;12.15;;;;;;;17.54;100.00;99937.78;4130839;85;28466;-82
2021/09/08 06:08:13;;;;;;;22.50;12.58;;;;;;;17.95;100.00;99941.98;4284746;81;28502;-80
2021/09/08 06:14:15;;;;;;;21.48;12.40;;;;;;;18.32;100.00;99933.09;4259822;81;28501;-82
2021/09/08 06:20:16;;;;;;;19.75;10.30;;;;;;;18.56;100.00;99929.97;4238828;83;28485;-82
2021/09/08 06:26:18;;;;;;;20.90;10.48;;;;;;;18.59;100.00;99924.02;4239669;83;28475;-82
2021/09/08 06:32:19;;;;;;;19.90;11.05;;;;;;;18.73;100.00;99923.55;4148523;84;28456;-82
2021/09/08 06:38:20;;;;;;;19.55;11.30;;;;;;;18.98;100.00;99921.50;4237279;84;28529;-82
2021/09/08 06:44:23;;;;;;;20.32;10.60;;;;;;;19.14;100.00;99917.48;4237010;84;28522;-82
2021/09/08 06:50:24;;;;;;;16.80;10.32;;;;;;;19.25;100.00;99925.17;4202335;84;28489;-82
2021/09/08 06:56:25;;;;;;;20.57;10.58;;;;;;;19.48;100.00;99928.78;4311999;82;28510;-81
2021/09/08 07:02:28;;;;;;;18.52;9.85;;;;;;;19.67;100.00;99928.28;4314779;83;28904;-81
2021/09/08 07:08:30;;;;;;;16.62;9.55;;;;;;;19.98;100.00;99920.69;4260515;83;28483;-82
2021/09/08 07:14:32;;;;;;;16.25;9.68;;;;;;;20.30;100.00;99928.61;4224025;82;28514;-78
2021/09/08 07:20:33;;;;;;;20.12;9.85;;;;;;;20.68;100.00;99917.91;4220217;81;28574;-80
2021/09/08 07:26:35;;;;;;;16.45;9.10;;;;;;;20.62;100.00;99922.00;4234318;82;28462;-78
2021/09/08 07:32:37;;;;;;;14.38;8.43;;;;;;;20.84;100.00;99922.24;4221289;82;28474;-78
2021/09/08 07:38:38;;;;;;;16.07;9.35;;;;;;;21.15;100.00;99926.23;4208207;83;28511;-79
2021/09/08 07:44:41;;;;;;;19.00;9.95;;;;;;;21.26;100.00;99933.02;4258581;84;28548;-77
2021/09/08 07:50:43;;;;;;;17.32;9.40;;;;;;;21.42;100.00;99928.28;4240951;84;28476;-80
2021/09/08 07:56:44;;;;;;;17.45;9.08;;;;;;;21.57;97.55;99932.31;4244376;82;28576;-79
2021/09/08 08:02:50;;;;;;;13.70;9.30;;;;;;;21.71;98.78;99941.28;4276875;82;28511;-79
2021/09/08 08:08:52;;;;;;;17.00;9.17;;;;;;;21.92;93.94;99933.76;4270917;82;28484;-79
2021/09/08 08:14:53;;;;;;;17.80;9.13;;;;;;;22.13;93.83;99937.70;4265516;82;28551;-79
2021/09/08 08:20:55;;;;;;;16.97;9.33;;;;;;;22.40;91.82;99932.24;4253094;82;28515;-82
2021/09/08 08:27:00;;;;;;;16.40;8.95;;;;;;;22.52;90.17;99939.55;4235353;84;28475;-82
2021/09/08 08:33:01;;;;;;;13.08;8.00;;;;;;;22.50;87.79;99934.91;4236333;82;28472;-80
2021/09/08 08:39:02;;;;;;;18.27;8.65;;;;;;;22.61;86.86;99937.02;4303359;82;28468;-78
2021/09/08 08:45:07;;;;;;;17.17;8.63;;;;;;;22.96;84.35;99930.86;4274434;82;28498;-81
2021/09/08 08:51:09;;;;;;;13.22;8.13;;;;;;;23.00;83.90;99928.89;4231141;82;28505;-85
2021/09/08 08:57:15;;;;;;;13.70;7.78;;;;;;;23.17;81.28;99922.91;4239559;82;28572;-83
2021/09/08 09:03:25;;;;;;;12.13;8.25;;;;;;;22.98;79.86;99918.23;4248980;82;28542;-78
2021/09/08 09:09:27;;;;;;;12.35;7.70;;;;;;;23.25;80.91;99922.27;4251050;84;28484;-75
2021/09/08 09:15:29;;;;;;;11.83;7.22;;;;;;;23.16;77.71;99922.12;4275300;82;28607;-76
2021/09/08 09:21:30;;;;;;;11.38;7.30;;;;;;;23.68;77.39;99920.86;4252478;84;28477;-83
2021/09/08 09:27:37;;;;;;;11.35;6.72;;;;;;;23.99;69.78;99910.51;4260750;82;28518;-78
2021/09/08 09:33:45;;;;;;;14.23;7.08;;;;;;;24.07;70.63;99909.31;4270913;82;28470;-77
2021/09/08 09:39:47;;;;;;;10.72;6.80;;;;;;;24.16;68.18;99909.97;4254049;84;28491;-78
2021/09/08 09:45:49;;;;;;;9.78;6.28;;;;;;;24.30;69.23;99906.72;4258602;84;28492;-78
2021/09/08 09:51:56;;;;;;;9.60;6.28;;;;;;;24.43;68.18;99899.63;4188293;85;28494;-79
2021/09/08 09:57:58;;;;;;;9.40;6.60;;;;;;;24.58;66.11;99891.65;4186519;85;28554;-78
2021/09/08 10:04:01;;;;;;;14.20;8.73;;;;;;;24.55;67.19;99890.86;4248195;84;28491;-77
2021/09/08 10:10:31;;;;;;;9.28;6.58;;;;;;;24.59;64.72;99882.82;4229726;84;28488;-78
2021/09/08 10:16:37;;;;;;;9.25;6.47;;;;;;;24.69;64.07;99873.00;4262864;83;28957;-77
2021/09/08 10:22:40;;;;;;;;;;;;;;;24.69;58.53;99866.13;4311167;82;28483;-77
2021/09/08 10:28:44;;;;;;;8.50;6.17;;;;;;;24.67;57.62;99868.38;4289945;82;20233;-78
2021/09/08 10:34:49;;;;;;;8.68;6.10;;;;;;;24.58;56.66;99874.33;4277181;83;28495;-78
2021/09/08 10:40:51;;;;;;;9.30;6.87;;;;;;;24.85;57.75;99862.53;4279706;83;28475;-77
2021/09/08 10:47:02;;;;;;;9.23;6.10;;;;;;;24.96;55.39;99859.56;4285497;83;28518;-78
2021/09/08 10:53:29;;;;;;;9.10;6.40;;;;;;;24.89;54.66;99853.94;4285397;83;28495;-77
2021/09/08 10:59:35;;;;;;;8.05;5.70;;;;;;;25.11;52.96;99854.29;4285539;83;28513;-77
2021/09/08 11:05:49;;;;;;;10.03;5.80;;;;;;;25.33;54.47;99844.69;4278532;83;28483;-77
2021/09/08 11:11:59;;;;;;;7.65;5.12;;;;;;;25.37;52.64;99844.09;4284924;83;28531;-77
2021/09/08 11:18:03;;;;;;;11.03;6.35;;;;;;;25.48;51.09;99838.02;4285334;83;28483;-78
2021/09/08 11:24:08;;;;;;;9.08;5.83;;;;;;;25.50;52.82;99837.74;4285511;83;28491;-77
2021/09/08 11:30:13;;;;;;;8.90;6.08;;;;;;;25.52;52.33;99831.94;4285623;81;28486;-77
2021/09/08 11:36:19;;;;;;;9.05;6.45;;;;;;;25.63;49.47;99833.31;4285822;83;28482;-77
2021/09/08 11:42:22;;;;;;;10.53;6.50;;;;;;;25.77;52.57;99826.91;4286058;83;28475;-77
2021/09/08 11:48:31;;;;;;;8.95;6.65;;;;;;;25.76;49.02;99823.33;4285291;83;28514;-78
2021/09/08 11:54:33;;;;;;;13.40;6.45;;;;;;;25.59;48.57;99820.73;4285225;83;28509;-77
2021/09/08 12:00:34;;;;;;;9.03;6.30;;;;;;;25.65;49.35;99810.40;4285836;81;28475;-78
2021/09/08 12:06:58;;;;;;;9.10;6.12;;;;;;;25.94;48.07;99802.23;4285899;83;28500;-78
2021/09/08 12:12:59;;;;;;;10.25;6.10;;;;;;;26.13;49.26;99801.98;4285461;83;28528;-78
2021/09/08 12:19:16;;;;;;;7.47;5.50;;;;;;;26.19;48.25;99794.42;4272673;83;28468;-78
2021/09/08 12:25:23;;;;;;;6.78;5.22;;;;;;;26.22;46.01;99784.12;4259838;84;28613;-77
2021/09/08 12:31:25;;;;;;;8.70;5.75;;;;;;;26.28;46.29;99785.63;4260339;84;28464;-79
2021/09/08 12:37:28;;;;;;;9.53;6.33;;;;;;;26.34;48.08;99770.30;4281500;83;28490;-77
2021/09/08 12:43:30;;;;;;;9.38;5.60;;;;;;;26.35;45.82;99771.95;4300722;82;28509;-77
2021/09/08 12:49:32;;;;;;;7.22;5.05;;;;;;;26.31;41.21;99774.53;4296842;82;28548;-78
2021/09/08 12:55:34;;;;;;;8.35;5.67;;;;;;;26.52;44.34;99759.58;4287846;83;28442;-78
2021/09/08 13:01:36;;;;;;;9.30;5.53;;;;;;;26.45;45.43;99762.80;4251406;84;28498;-78
2021/09/08 13:07:37;;;;;;;9.10;5.70;;;;;;;26.56;46.22;99753.68;4251713;84;28471;-78
2021/09/08 13:13:38;;;;;;;8.43;5.55;;;;;;;26.56;44.90;99741.83;4254655;84;28479;-78
2021/09/08 13:19:40;;;;;;;8.50;5.53;;;;;;;26.69;46.18;99731.21;4272159;83;28482;-77
2021/09/08 13:25:41;;;;;;;8.68;5.87;;;;;;;26.57;43.28;99718.08;4282681;83;28568;-78
2021/09/08 13:31:44;;;;;;;9.38;5.83;;;;;;;26.67;46.00;99707.29;4284876;83;28470;-78
2021/09/08 13:37:45;;;;;;;7.17;5.55;;;;;;;26.72;44.94;99706.31;4285028;83;28518;-77
2021/09/08 13:43:47;;;;;;;7.90;5.87;;;;;;;26.89;45.91;99702.77;4234426;83;28497;-76
2021/09/08 13:49:48;;;;;;;9.50;5.75;;;;;;;26.97;45.95;99692.31;4217126;83;28502;-75
2021/09/08 13:55:49;;;;;;;9.18;6.37;;;;;;;26.80;46.60;99690.34;4279347;81;28448;-75
2021/09/08 14:01:54;;;;;;;10.23;6.55;;;;;;;26.82;44.97;99679.00;4286009;81;28502;-75
2021/09/08 14:07:58;;;;;;;8.60;5.87;;;;;;;26.73;45.63;99676.22;4283700;82;28460;-77
2021/09/08 14:13:59;;;;;;;8.60;6.25;;;;;;;26.81;47.02;99669.08;4260778;81;28455;-77
2021/09/08 14:20:01;;;;;;;8.10;5.65;;;;;;;26.71;46.77;99661.95;4285062;83;28479;-77
2021/09/08 14:26:02;;;;;;;10.08;6.08;;;;;;;26.85;46.28;99665.92;4296672;81;28467;-76
2021/09/08 14:32:05;;;;;;;10.98;5.83;;;;;;;26.83;45.48;99656.59;4310217;81;28535;-77
2021/09/08 14:38:06;;;;;;;7.83;5.80;;;;;;;26.92;45.94;99648.35;4298903;83;28459;-76
2021/09/08 14:44:08;;;;;;;8.93;5.78;;;;;;;26.88;45.98;99647.36;4161916;85;28519;-77
2021/09/08 14:50:10;;;;;;;8.55;6.60;;;;;;;26.85;46.75;99642.48;4133545;86;28477;-77
2021/09/08 14:56:12;;;;;;;8.00;6.40;;;;;;;26.52;46.34;99630.58;4133459;86;28512;-77
2021/09/08 15:02:13;;;;;;;8.48;6.42;;;;;;;26.79;47.39;99627.22;4133367;86;28605;-76
2021/09/08 15:08:18;;;;;;;8.35;6.58;;;;;;;26.67;48.92;99627.31;4133729;86;28477;-78
2021/09/08 15:14:18;;;;;;;9.55;6.30;;;;;;;26.64;50.90;99623.84;4132475;84;28526;-77
2021/09/08 15:20:19;;;;;;;10.53;7.03;;;;;;;26.64;49.66;99614.19;4115160;86;28546;-78
2021/09/08 15:26:21;;;;;;;10.32;6.45;;;;;;;26.62;50.02;99612.33;4214321;83;28506;-78
2021/09/08 15:32:23;;;;;;;9.78;6.35;;;;;;;26.60;51.84;99604.93;4155279;86;28461;-77
2021/09/08 15:38:26;;;;;;;10.35;6.62;;;;;;;26.48;52.03;99604.23;4155265;86;28492;-77
2021/09/08 15:44:27;;;;;;;10.32;6.40;;;;;;;26.37;50.69;99591.91;4198910;85;28471;-78
2021/09/08 15:50:29;;;;;;;9.53;6.45;;;;;;;26.60;49.72;99585.62;4173215;85;28499;-77
2021/09/08 15:56:31;;;;;;;10.28;7.05;;;;;;;26.40;51.27;99585.18;4179967;85;28500;-76
2021/09/08 16:02:32;;;;;;;8.70;6.17;;;;;;;26.13;49.80;99580.73;4212406;84;28527;-77
2021/09/08 16:08:34;;;;;;;8.93;6.72;;;;;;;25.94;51.54;99570.03;4206906;85;28442;-76
2021/09/08 16:14:35;;;;;;;10.75;6.60;;;;;;;25.92;51.84;99573.68;4162764;86;28462;-74
2021/09/08 16:20:36;;;;;;;8.43;6.00;;;;;;;25.79;50.96;99572.13;4122149;86;28541;-76
2021/09/08 16:26:38;;;;;;;10.43;6.45;;;;;;;25.69;51.29;99571.05;4167658;85;28506;-76
2021/09/08 16:32:39;;;;;;;14.70;7.78;;;;;;;25.61;52.73;99563.81;4259110;82;28502;-79
2021/09/08 16:38:42;;;;;;;10.50;6.72;;;;;;;25.33;54.18;99558.50;4274921;82;28514;-78
2021/09/08 16:44:44;;;;;;;12.60;7.50;;;;;;;25.37;54.55;99555.92;4255529;83;28604;-79
2021/09/08 16:50:45;;;;;;;10.40;6.87;;;;;;;25.18;56.27;99558.93;4216916;83;28556;-79
2021/09/08 16:56:47;;;;;;;14.33;7.35;;;;;;;24.99;57.51;99564.09;4212344;84;28528;-78
2021/09/08 17:02:49;;;;;;;13.30;7.00;;;;;;;24.75;61.32;99565.23;4212930;83;28575;-80
2021/09/08 17:08:52;;;;;;;10.80;6.87;;;;;;;24.29;70.36;99563.58;4268488;83;28523;-78
2021/09/08 17:14:54;;;;;;;9.88;6.42;;;;;;;23.89;72.44;99569.08;4290230;82;28569;-78
2021/09/08 17:20:55;;;;;;;17.42;8.10;;;;;;;23.63;72.35;99571.55;4260175;83;28536;-78
2021/09/08 17:26:58;;;;;;;11.63;7.37;;;;;;;23.42;73.57;99575.28;4247908;84;28525;-78
2021/09/08 17:33:01;;;;;;;15.20;7.08;;;;;;;23.11;76.73;99582.94;4197686;84;28436;-78
2021/09/08 17:39:05;;;;;;;16.17;7.92;;;;;;;22.76;81.47;99589.84;4174264;84;28496;-83
2021/09/08 17:45:13;;;;;;;16.10;7.95;;;;;;;22.97;82.82;99588.95;4096814;84;28497;-82
2021/09/08 17:51:14;;;;;;;14.87;8.03;;;;;;;22.83;81.36;99589.71;4118423;84;28497;-78
2021/09/08 17:57:17;;;;;;;11.80;8.15;;;;;;;22.72;80.21;99586.09;4175827;84;28448;-80
2021/09/08 18:03:19;;;;;;;14.05;8.65;;;;;;;22.55;80.83;99592.92;4156706;86;28488;-79
2021/09/08 18:09:21;;;;;;;13.05;8.33;;;;;;;22.23;83.77;99594.45;4180485;84;28599;-79
2021/09/08 18:15:24;;;;;;;15.43;9.40;;;;;;;22.01;90.39;99597.22;4170333;84;28479;-79
2021/09/08 18:21:25;;;;;;;14.00;9.20;;;;;;;21.83;90.53;99594.72;4138709;86;28533;-79
2021/09/08 18:27:27;;;;;;;16.80;8.83;;;;;;;21.90;88.18;99591.05;4132437;86;28490;-80
2021/09/08 18:33:31;;;;;;;16.35;9.95;;;;;;;21.69;94.34;99587.77;4132739;86;28538;-78
2021/09/08 18:39:34;;;;;;;16.48;9.98;;;;;;;21.53;95.21;99587.91;4172029;84;28494;-79
2021/09/08 18:45:37;;;;;;;19.45;10.88;;;;;;;21.59;90.89;99593.59;4143929;84;28479;-81
2021/09/08 18:51:39;;;;;;;20.68;10.13;;;;;;;21.47;93.09;99588.25;4217206;84;28884;-79
2021/09/08 18:57:42;;;;;;;18.02;10.80;;;;;;;21.29;97.11;99593.35;4193528;84;28469;-80
2021/09/08 19:03:43;;;;;;;22.80;13.08;;;;;;;20.90;100.00;99592.36;4131598;86;28516;-79
2021/09/08 19:09:46;;;;;;;16.05;10.13;;;;;;;21.07;94.86;99588.39;4128575;86;28518;-79
2021/09/08 19:15:51;;;;;;;20.02;10.85;;;;;;;20.59;100.00;99602.96;4130429;86;28477;-79
2021/09/08 19:21:52;;;;;;;17.15;10.18;;;;;;;20.33;100.00;99597.66;4145007;85;28500;-78
2021/09/08 19:28:00;;;;;;;16.27;10.00;;;;;;;20.25;100.00;99593.35;4152425;86;28479;-80
2021/09/08 19:33:57;;;;;;;21.60;11.40;;;;;;;20.22;100.00;99591.99;4132357;86;28495;-79
2021/09/08 19:39:58;;;;;;;21.00;11.80;;;;;;;20.56;100.00;99589.85;4132822;86;28468;-78
2021/09/08 19:46:00;;;;;;;18.85;11.08;;;;;;;20.78;100.00;99581.79;4132201;86;28530;-80
2021/09/08 19:52:01;;;;;;;21.52;11.78;;;;;;;20.61;100.00;99587.63;4133308;84;28477;-80
2021/09/08 19:58:04;;;;;;;20.52;12.10;;;;;;;20.36;100.00;99585.36;4130492;84;28543;-80
2021/09/08 20:04:05;;;;;;;22.85;12.78;;;;;;;20.13;100.00;99590.95;4143579;85;28436;-80
2021/09/08 20:10:12;;;;;;;22.07;12.68;;;;;;;20.12;100.00;99590.16;4156549;85;28532;-79
2021/09/08 20:16:13;;;;;;;23.33;13.37;;;;;;;20.17;100.00;99592.84;4131881;85;28473;-78
2021/09/08 20:22:16;;;;;;;20.17;12.43;;;;;;;20.11;100.00;99589.06;4084479;86;28541;-79
2021/09/08 20:28:17;;;;;;;21.93;13.50;;;;;;;19.71;100.00;99591.67;4121513;84;28459;-80
2021/09/08 20:34:19;;;;;;;25.52;13.32;;;;;;;19.67;100.00;99583.22;4171077;84;28466;-80
2021/09/08 20:40:20;;;;;;;20.35;12.13;;;;;;;19.56;100.00;99589.25;4160327;84;28472;-80
2021/09/08 20:46:21;;;;;;;22.20;12.50;;;;;;;19.42;100.00;99595.86;4169690;84;28465;-80
2021/09/08 20:52:24;;;;;;;19.52;12.25;;;;;;;19.29;100.00;99588.23;4187237;82;28575;-80
2021/09/08 20:58:25;;;;;;;18.17;11.80;;;;;;;19.12;100.00;99588.01;4209700;82;28527;-82
2021/09/08 21:04:26;;;;;;;20.95;12.37;;;;;;;19.02;100.00;99596.20;4212618;82;28474;-83
2021/09/08 21:10:28;;;;;;;22.67;12.60;;;;;;;19.02;100.00;99588.82;4232712;83;28486;-82
2021/09/08 21:16:29;;;;;;;19.17;11.40;;;;;;;18.85;100.00;99595.88;4237545;83;28421;-83
2021/09/08 21:22:31;;;;;;;21.00;12.63;;;;;;;18.79;100.00;99595.60;4264971;81;28456;-82
2021/09/08 21:28:32;;;;;;;20.30;12.40;;;;;;;18.78;100.00;99597.52;4314948;81;28535;-83
2021/09/08 21:34:33;;;;;;;21.00;12.73;;;;;;;18.65;100.00;99596.15;4312979;81;28471;-84
2021/09/08 21:40:34;;;;;;;21.20;11.88;;;;;;;18.61;100.00;99593.70;4277392;81;28470;-83
2021/09/08 21:46:35;;;;;;;20.75;11.80;;;;;;;18.44;100.00;99595.86;4253365;81;28493;-82
2021/09/08 21:52:37;;;;;;;21.27;13.15;;;;;;;18.45;100.00;99597.48;4255136;82;28416;-83
2021/09/08 21:58:39;;;;;;;21.30;12.85;;;;;;;18.46;100.00;99597.76;4256602;81;28517;-84
2021/09/08 22:04:40;;;;;;;21.75;12.45;;;;;;;18.32;100.00;99602.90;4256783;81;28481;-81
2021/09/08 22:10:41;;;;;;;18.70;11.30;;;;;;;18.18;100.00;99602.06;4251631;81;28470;-83
2021/09/08 22:16:43;;;;;;;20.50;12.00;;;;;;;18.05;100.00;99596.58;4250569;81;28518;-83
2021/09/08 22:22:45;;;;;;;20.25;12.10;;;;;;;18.12;100.00;99599.06;4194792;82;28549;-82
2021/09/08 22:28:47;;;;;;;21.85;12.33;;;;;;;17.95;100.00;99597.34;4228164;82;28490;-82
2021/09/08 22:34:48;;;;;;;20.82;12.33;;;;;;;17.80;100.00;99596.73;4231404;82;28496;-82
2021/09/08 22:40:49;;;;;;;21.33;11.93;;;;;;;17.63;100.00;99592.86;4229241;82;28518;-83
2021/09/08 22:46:52;;;;;;;18.77;11.30;;;;;;;17.75;100.00;99592.62;4228954;82;29052;-82
2021/09/08 22:52:53;;;;;;;20.10;12.65;;;;;;;17.69;100.00;99588.26;4249515;82;28509;-82
2021/09/08 22:58:54;;;;;;;22.58;12.35;;;;;;;17.64;100.00;99587.69;4258709;83;28488;-82
2021/09/08 23:04:56;;;;;;;20.05;13.28;;;;;;;17.59;100.00;99584.13;4284279;81;28531;-82
2021/09/08 23:10:59;;;;;;;18.35;11.30;;;;;;;17.38;100.00;99582.66;4234329;82;28549;-82
2021/09/08 23:17:01;;;;;;;21.73;11.38;;;;;;;17.28;100.00;99584.77;4260002;82;28488;-81
2021/09/08 23:23:04;;;;;;;22.62;12.28;;;;;;;17.33;100.00;99580.73;4247080;82;28479;-83
2021/09/08 23:29:05;;;;;;;21.80;12.25;;;;;;;17.41;100.00;99585.67;4265184;82;28497;-82
2021/09/08 23:35:09;;;;;;;19.02;11.88;;;;;;;17.08;100.00;99578.14;4244875;82;28532;-82
2021/09/08 23:41:11;;;;;;;21.50;12.35;;;;;;;16.99;100.00;99575.04;4240420;82;28474;-81
2021/09/08 23:47:14;;;;;;;18.55;11.48;;;;;;;16.97;100.00;99576.38;4283289;82;28467;-82
2021/09/08 23:53:16;;;;;;;20.00;11.83;;;;;;;16.85;100.00;99567.07;4266383;82;28528;-82
2021/09/08 23:59:18;;;;;;;18.67;11.28;;;;;;;16.65;100.00;99569.06;4246569;82;28488;-82
